Time;durP1;ratioP1;P1;durP2;ratioP2;P2;SDS_P1;SDS_P2;PMS_P1;PMS_P2;Temp;Humidity;BMP_temperature;BMP_pressure;BME280_temperature;BME280_humidity;BME280_pressure;Samples;Min_cycle;Max_cycle;Signal;HPM_P1;HPM_P2
2023/05/25 00:01:35;;;;;;;8.07;5.30;;;15.10;59.10;;;;;;5016592;28;20216;-65
2023/05/25 00:04:04;;;;;;;14.40;6.53;;;15.10;59.50;;;;;;5016923;28;20955;-64
2023/05/25 00:06:32;;;;;;;14.13;6.80;;;15.00;59.40;;;;;;5011431;28;20263;-64
2023/05/25 00:08:58;;;;;;;11.50;5.57;;;15.00;59.50;;;;;;5020353;28;20611;-65
2023/05/25 00:11:24;;;;;;;11.40;5.63;;;15.00;59.60;;;;;;5011384;28;20878;-64
2023/05/25 00:13:50;;;;;;;8.30;5.40;;;15.00;59.70;;;;;;5013387;28;20211;-64
2023/05/25 00:16:16;;;;;;;7.17;5.10;;;15.00;59.80;;;;;;5008291;28;20440;-64
2023/05/25 00:18:42;;;;;;;8.00;4.57;;;14.90;59.90;;;;;;5016737;28;20826;-64
2023/05/25 00:21:09;;;;;;;9.83;4.77;;;14.90;59.90;;;;;;5013672;28;20201;-64
2023/05/25 00:23:35;;;;;;;14.47;5.90;;;14.90;59.90;;;;;;4997346;28;20435;-64
2023/05/25 00:26:02;;;;;;;8.73;4.97;;;14.90;59.90;;;;;;5009895;28;20439;-65
2023/05/25 00:28:28;;;;;;;8.70;5.40;;;14.90;60.00;;;;;;5006339;28;20208;-65
2023/05/25 00:30:53;;;;;;;9.07;5.10;;;14.90;60.10;;;;;;5011270;28;21542;-65
2023/05/25 00:33:19;;;;;;;10.13;4.73;;;14.90;60.30;;;;;;5016310;28;20655;-65
2023/05/25 00:35:45;;;;;;;8.53;4.67;;;14.90;60.50;;;;;;5014224;28;20214;-65
2023/05/25 00:38:16;;;;;;;9.43;4.80;;;14.90;60.60;;;;;;5010991;28;20215;-65
2023/05/25 00:40:42;;;;;;;10.70;4.93;;;14.80;61.00;;;;;;5011970;28;20435;-65
2023/05/25 00:43:08;;;;;;;9.77;5.30;;;14.80;61.00;;;;;;5008018;28;20455;-65
2023/05/25 00:45:34;;;;;;;9.50;7.00;;;14.80;61.40;;;;;;5016692;28;20474;-65
2023/05/25 00:48:02;;;;;;;7.40;4.40;;;14.80;61.60;;;;;;5013026;28;20490;-65
2023/05/25 00:50:42;;;;;;;10.97;5.37;;;14.80;61.80;;;;;;5009878;28;20585;-65
2023/05/25 00:53:09;;;;;;;8.30;5.03;;;14.80;62.10;;;;;;5014835;28;21008;-65
2023/05/25 00:55:48;;;;;;;10.50;4.90;;;14.70;62.10;;;;;;5017999;28;20478;-65
2023/05/25 00:58:16;;;;;;;8.90;5.40;;;14.70;62.40;;;;;;5023483;28;20822;-65
2023/05/25 01:00:45;;;;;;;6.83;4.67;;;14.70;62.60;;;;;;5019940;28;20740;-65
2023/05/25 01:03:16;;;;;;;9.37;5.10;;;14.70;62.70;;;;;;5020301;28;20423;-65
2023/05/25 01:05:46;;;;;;;9.20;5.10;;;14.70;62.90;;;;;;5021490;28;20506;-65
2023/05/25 01:08:13;;;;;;;7.53;4.93;;;14.60;63.10;;;;;;5015324;28;20498;-65
2023/05/25 01:10:41;;;;;;;9.50;4.70;;;14.60;63.30;;;;;;5028625;28;20955;-66
2023/05/25 01:13:08;;;;;;;13.70;6.77;;;14.60;63.70;;;;;;5027329;28;20478;-66
2023/05/25 01:15:36;;;;;;;10.30;5.43;;;14.60;63.70;;;;;;5016535;28;20411;-65
2023/05/25 01:18:02;;;;;;;9.10;5.63;;;14.50;63.80;;;;;;5018255;28;20513;-65
2023/05/25 01:20:29;;;;;;;12.03;6.00;;;14.50;64.20;;;;;;5016208;28;20541;-65
2023/05/25 01:23:02;;;;;;;12.93;5.60;;;14.50;64.30;;;;;;5021202;28;20811;-65
2023/05/25 01:25:40;;;;;;;7.73;5.10;;;14.40;64.40;;;;;;5024185;28;20548;-65
2023/05/25 01:28:10;;;;;;;9.80;5.50;;;14.40;64.60;;;;;;5019388;28;20521;-65
2023/05/25 01:30:38;;;;;;;10.60;5.70;;;14.40;65.10;;;;;;5018402;28;20727;-65
2023/05/25 01:33:05;;;;;;;10.93;5.40;;;14.30;65.20;;;;;;5018068;28;20510;-65
2023/05/25 01:35:32;;;;;;;12.03;6.70;;;14.30;65.40;;;;;;5020254;28;20439;-65
2023/05/25 01:37:58;;;;;;;12.43;5.57;;;14.20;65.40;;;;;;5017189;28;20957;-65
2023/05/25 01:40:23;;;;;;;6.87;5.07;;;14.20;65.70;;;;;;5014083;28;20435;-65
2023/05/25 01:42:49;;;;;;;10.63;5.30;;;14.20;65.70;;;;;;5013428;28;20193;-65
2023/05/25 01:45:15;;;;;;;8.40;5.40;;;14.10;65.40;;;;;;5014523;28;20193;-65
2023/05/25 01:47:45;;;;;;;8.70;5.43;;;14.10;65.80;;;;;;5021007;28;20268;-65
2023/05/25 01:50:22;;;;;;;11.87;5.63;;;14.10;66.00;;;;;;5009215;28;20436;-65
2023/05/25 01:53:02;;;;;;;9.90;5.30;;;14.00;66.00;;;;;;5015459;28;20923;-65
2023/05/25 01:55:31;;;;;;;9.70;4.97;;;14.00;66.70;;;;;;5009290;28;20439;-65
2023/05/25 01:57:58;;;;;;;7.90;5.90;;;13.90;66.60;;;;;;5012211;28;20475;-65
2023/05/25 02:00:26;;;;;;;10.27;6.40;;;13.90;66.80;;;;;;5016445;28;20432;-65
2023/05/25 02:02:54;;;;;;;10.00;5.77;;;13.80;67.00;;;;;;5014939;28;20433;-65
2023/05/25 02:05:20;;;;;;;9.60;4.73;;;13.80;67.20;;;;;;5019635;28;20537;-65
2023/05/25 02:07:45;;;;;;;10.93;5.53;;;13.70;67.40;;;;;;5018150;28;20463;-65
2023/05/25 02:10:11;;;;;;;9.93;5.30;;;13.70;67.70;;;;;;5016805;28;20462;-65
2023/05/25 02:12:37;;;;;;;9.77;5.40;;;13.70;67.70;;;;;;5019489;28;20176;-65
2023/05/25 02:15:03;;;;;;;8.93;5.70;;;13.70;68.10;;;;;;5019811;28;20271;-65
2023/05/25 02:17:29;;;;;;;8.73;5.60;;;13.60;68.50;;;;;;5021152;28;20596;-65
2023/05/25 02:19:55;;;;;;;11.73;5.57;;;13.50;68.60;;;;;;5021463;28;20570;-65
2023/05/25 02:22:21;;;;;;;7.50;5.30;;;13.60;68.70;;;;;;5018708;28;20211;-65
2023/05/25 02:24:47;;;;;;;11.30;5.40;;;13.60;68.70;;;;;;5013707;28;20443;-65
2023/05/25 02:27:12;;;;;;;10.97;5.50;;;13.60;68.90;;;;;;5021507;28;20554;-65
2023/05/25 02:29:38;;;;;;;9.97;5.30;;;13.60;69.00;;;;;;5018023;28;20492;-65
2023/05/25 02:32:05;;;;;;;8.43;5.13;;;13.50;69.70;;;;;;5012783;28;20193;-65
2023/05/25 02:34:30;;;;;;;9.80;5.23;;;13.60;69.00;;;;;;5022678;28;21034;-65
2023/05/25 02:36:56;;;;;;;10.77;5.03;;;13.50;68.90;;;;;;5022734;28;20554;-65
2023/05/25 02:39:22;;;;;;;11.23;5.43;;;13.50;69.10;;;;;;5004356;28;20213;-64
2023/05/25 02:41:47;;;;;;;13.57;5.30;;;13.50;69.10;;;;;;5027377;28;20187;-64
2023/05/25 02:44:13;;;;;;;5.50;4.63;;;13.50;69.30;;;;;;5016467;28;20177;-64
2023/05/25 02:46:39;;;;;;;8.70;4.80;;;13.50;69.50;;;;;;5016247;28;20193;-64
2023/05/25 02:49:04;;;;;;;12.63;5.77;;;13.50;70.60;;;;;;5023147;28;20208;-64
2023/05/25 02:51:31;;;;;;;7.17;5.13;;;13.50;70.30;;;;;;5022150;28;20275;-64
2023/05/25 02:53:56;;;;;;;9.00;5.30;;;13.40;71.00;;;;;;5025568;28;20373;-64
2023/05/25 02:56:22;;;;;;;9.77;5.50;;;13.40;71.70;;;;;;5023086;28;20457;-63
2023/05/25 02:58:48;;;;;;;10.63;5.87;;;13.40;72.30;;;;;;5022119;28;20215;-64
2023/05/25 03:01:17;;;;;;;6.57;5.10;;;13.40;72.90;;;;;;5024255;28;20665;-64
2023/05/25 03:03:46;;;;;;;9.67;6.80;;;13.30;73.10;;;;;;5021587;28;20454;-64
2023/05/25 03:06:12;;;;;;;11.43;5.57;;;13.30;73.90;;;;;;5028870;28;20432;-64
2023/05/25 03:08:39;;;;;;;10.40;6.30;;;13.30;74.40;;;;;;5024220;28;20550;-64
2023/05/25 03:11:05;;;;;;;14.13;5.90;;;13.30;74.80;;;;;;5022596;28;20452;-64
2023/05/25 03:13:31;;;;;;;7.10;5.37;;;13.30;75.30;;;;;;5023694;28;20548;-64
2023/05/25 03:15:56;;;;;;;9.37;6.03;;;13.20;75.60;;;;;;5021232;28;20212;-64
2023/05/25 03:18:22;;;;;;;12.30;6.07;;;13.20;76.10;;;;;;5019975;28;20203;-64
2023/05/25 03:20:47;;;;;;;12.03;6.00;;;13.20;76.60;;;;;;5025792;28;20251;-64
2023/05/25 03:23:13;;;;;;;10.30;5.67;;;13.20;77.00;;;;;;5018849;28;20188;-64
2023/05/25 03:25:38;;;;;;;13.47;6.87;;;13.10;77.40;;;;;;5021897;28;20184;-64
2023/05/25 03:28:04;;;;;;;10.70;5.67;;;13.10;78.10;;;;;;5023018;28;21007;-64
2023/05/25 03:30:30;;;;;;;17.30;6.60;;;13.10;78.40;;;;;;5017625;28;20203;-64
2023/05/25 03:32:56;;;;;;;9.23;5.93;;;13.10;78.80;;;;;;5018732;28;20192;-64
2023/05/25 03:35:21;;;;;;;11.27;6.20;;;13.10;79.10;;;;;;5015473;28;20959;-64
2023/05/25 03:37:47;;;;;;;12.60;5.87;;;13.10;79.50;;;;;;5017495;28;20436;-64
2023/05/25 03:40:12;;;;;;;13.40;6.73;;;13.00;80.10;;;;;;5017586;28;20663;-64
2023/05/25 03:42:38;;;;;;;7.63;6.20;;;12.90;81.20;;;;;;5022429;28;20736;-64
2023/05/25 03:45:05;;;;;;;10.10;7.07;;;12.90;81.60;;;;;;5019764;28;20193;-64
2023/05/25 03:47:30;;;;;;;11.50;6.40;;;12.90;82.00;;;;;;5013590;28;20299;-64
2023/05/25 03:49:56;;;;;;;12.60;6.73;;;12.90;82.80;;;;;;5017700;28;20980;-64
2023/05/25 03:52:21;;;;;;;9.13;6.70;;;12.90;83.20;;;;;;5018290;28;20180;-64
2023/05/25 03:54:48;;;;;;;8.43;6.13;;;12.90;83.70;;;;;;5013924;28;20211;-64
2023/05/25 03:57:13;;;;;;;12.07;6.13;;;12.80;83.80;;;;;;5011006;28;20300;-64
2023/05/25 03:59:39;;;;;;;9.40;6.17;;;12.80;84.50;;;;;;5014414;28;20470;-64
2023/05/25 04:02:04;;;;;;;23.13;6.37;;;12.80;85.20;;;;;;5012175;28;20666;-64
2023/05/25 04:04:30;;;;;;;11.53;6.30;;;12.80;86.10;;;;;;5017191;28;20192;-64
2023/05/25 04:06:55;;;;;;;10.90;5.80;;;12.80;86.30;;;;;;5014046;28;20189;-64
2023/05/25 04:09:21;;;;;;;13.63;7.13;;;12.70;86.80;;;;;;5012377;28;20232;-64
2023/05/25 04:11:47;;;;;;;10.97;6.27;;;12.70;87.20;;;;;;5012073;28;20308;-64
2023/05/25 04:14:12;;;;;;;9.43;6.27;;;12.70;87.90;;;;;;5010037;28;20200;-64
2023/05/25 04:16:41;;;;;;;10.37;6.00;;;12.70;88.90;;;;;;5010594;28;20292;-64
2023/05/25 04:19:07;;;;;;;12.87;6.17;;;12.70;89.10;;;;;;5014156;28;20230;-64
2023/05/25 04:21:32;;;;;;;8.50;5.87;;;12.70;89.60;;;;;;5017453;28;20432;-64
2023/05/25 04:23:58;;;;;;;13.97;6.13;;;12.70;90.00;;;;;;5013092;28;20284;-64
2023/05/25 04:26:26;;;;;;;13.93;6.97;;;12.70;90.50;;;;;;5012701;28;20187;-64
2023/05/25 04:28:55;;;;;;;12.90;6.33;;;12.70;90.30;;;;;;5009702;28;20209;-64
2023/05/25 04:31:20;;;;;;;10.37;6.90;;;12.70;90.60;;;;;;5017108;28;20447;-64
2023/05/25 04:33:46;;;;;;;14.27;6.30;;;12.70;90.90;;;;;;5008840;28;21150;-64
2023/05/25 04:36:13;;;;;;;17.60;7.00;;;12.70;91.00;;;;;;5019460;28;20185;-64
2023/05/25 04:38:39;;;;;;;10.23;6.40;;;12.70;91.30;;;;;;5008242;28;20205;-64
2023/05/25 04:41:05;;;;;;;12.07;6.93;;;12.70;91.50;;;;;;5016285;28;20800;-64
2023/05/25 04:43:31;;;;;;;11.47;6.57;;;12.70;92.60;;;;;;5013632;28;20444;-64
2023/05/25 04:45:58;;;;;;;13.03;6.70;;;12.70;93.60;;;;;;5012989;28;20434;-64
2023/05/25 04:48:27;;;;;;;11.93;7.23;;;12.70;93.20;;;;;;5007648;28;20545;-64
2023/05/25 04:50:54;;;;;;;14.90;7.27;;;12.70;93.70;;;;;;5005079;28;20498;-64
2023/05/25 04:53:22;;;;;;;14.20;7.00;;;12.70;93.90;;;;;;5017298;28;20460;-64
2023/05/25 04:55:48;;;;;;;15.40;7.27;;;12.70;93.90;;;;;;5020829;28;20929;-65
2023/05/25 04:58:14;;;;;;;8.43;6.37;;;12.80;94.40;;;;;;5024125;28;20463;-64
2023/05/25 05:00:40;;;;;;;10.80;6.70;;;12.80;94.30;;;;;;5018930;28;20176;-64
2023/05/25 05:03:05;;;;;;;11.93;6.90;;;12.70;94.70;;;;;;5014899;28;20602;-64
2023/05/25 05:05:31;;;;;;;14.50;6.87;;;12.80;94.90;;;;;;5016682;28;20276;-65
2023/05/25 05:07:57;;;;;;;16.40;7.20;;;12.70;95.20;;;;;;5022793;28;20271;-65
2023/05/25 05:10:22;;;;;;;11.03;6.43;;;12.80;95.30;;;;;;5015888;28;20737;-64
2023/05/25 05:12:48;;;;;;;8.80;5.93;;;12.80;95.40;;;;;;5018765;28;20254;-64
2023/05/25 05:15:13;;;;;;;9.60;5.90;;;12.80;95.50;;;;;;5021172;28;20630;-64
2023/05/25 05:17:39;;;;;;;10.43;5.80;;;12.80;95.60;;;;;;5018894;28;20173;-64
2023/05/25 05:20:06;;;;;;;9.97;6.10;;;12.80;95.70;;;;;;5016709;28;20594;-64
2023/05/25 05:22:32;;;;;;;12.10;6.83;;;12.80;95.80;;;;;;5012709;28;20218;-64
2023/05/25 05:24:58;;;;;;;9.30;5.53;;;12.90;96.00;;;;;;5015893;28;20525;-64
2023/05/25 05:27:25;;;;;;;13.80;6.30;;;12.90;96.00;;;;;;5014801;28;20506;-64
2023/05/25 05:29:50;;;;;;;10.07;6.37;;;13.00;95.90;;;;;;5007323;28;20197;-64
2023/05/25 05:32:16;;;;;;;12.00;6.07;;;13.00;95.70;;;;;;5011657;28;20437;-65
2023/05/25 05:34:41;;;;;;;18.47;5.73;;;13.10;95.60;;;;;;5012395;28;20213;-65
2023/05/25 05:37:07;;;;;;;12.30;6.03;;;13.10;95.40;;;;;;5009397;28;20481;-65
2023/05/25 05:39:32;;;;;;;7.40;5.37;;;13.10;95.50;;;;;;5008138;28;20207;-63
2023/05/25 05:41:58;;;;;;;9.80;6.00;;;13.20;95.40;;;;;;5017526;28;20185;-65
2023/05/25 05:44:24;;;;;;;11.10;5.93;;;13.20;95.10;;;;;;5009046;28;20208;-65
2023/05/25 05:46:49;;;;;;;11.87;5.70;;;13.30;95.30;;;;;;5010216;28;20191;-66
2023/05/25 05:49:15;;;;;;;11.93;5.77;;;13.30;95.00;;;;;;5014152;28;20205;-65
2023/05/25 05:51:40;;;;;;;9.87;5.70;;;13.40;95.30;;;;;;5014299;28;20186;-65
2023/05/25 05:54:06;;;;;;;10.10;5.57;;;13.40;95.50;;;;;;5015700;28;20207;-65
2023/05/25 05:56:32;;;;;;;10.83;5.40;;;13.50;95.20;;;;;;5011661;28;20204;-65
2023/05/25 05:58:57;;;;;;;12.63;5.50;;;13.50;95.00;;;;;;5010709;28;20205;-65
2023/05/25 06:01:24;;;;;;;13.07;6.03;;;13.60;94.50;;;;;;5016645;28;20268;-65
2023/05/25 06:03:51;;;;;;;12.40;5.87;;;13.60;94.20;;;;;;5018174;28;20235;-65
2023/05/25 06:06:16;;;;;;;15.43;5.80;;;13.70;94.10;;;;;;5022248;28;20824;-65
2023/05/25 06:08:42;;;;;;;9.10;5.30;;;13.70;94.10;;;;;;5022131;28;20463;-65
2023/05/25 06:11:08;;;;;;;12.17;6.00;;;13.70;94.00;;;;;;5018466;28;20180;-65
2023/05/25 06:13:33;;;;;;;11.13;5.47;;;13.80;94.00;;;;;;5018677;28;20680;-65
2023/05/25 06:15:59;;;;;;;10.20;5.33;;;13.90;93.60;;;;;;5013480;28;20227;-65
2023/05/25 06:18:25;;;;;;;14.10;5.53;;;13.90;93.20;;;;;;5014196;28;20200;-66
2023/05/25 06:20:50;;;;;;;10.93;5.37;;;14.00;93.20;;;;;;5023628;28;20197;-65
2023/05/25 06:23:17;;;;;;;17.03;5.40;;;14.00;93.10;;;;;;5011916;28;20200;-64
2023/05/25 06:25:43;;;;;;;10.37;5.20;;;14.00;93.10;;;;;;5019432;28;20562;-65
2023/05/25 06:28:09;;;;;;;9.07;5.67;;;14.10;93.20;;;;;;5020598;28;20469;-65
2023/05/25 06:30:35;;;;;;;13.57;5.60;;;14.20;92.80;;;;;;5017204;28;20862;-64
2023/05/25 06:33:00;;;;;;;9.40;5.23;;;14.20;92.60;;;;;;5011374;28;20338;-64
2023/05/25 06:35:26;;;;;;;7.50;4.97;;;14.20;92.40;;;;;;5020288;28;20253;-64
2023/05/25 06:37:51;;;;;;;9.00;5.63;;;14.20;92.30;;;;;;5011413;28;20841;-64
2023/05/25 06:40:17;;;;;;;14.63;5.07;;;14.30;92.40;;;;;;5013670;28;20830;-65
2023/05/25 06:42:43;;;;;;;22.03;12.80;;;14.30;92.20;;;;;;5011244;28;20185;-64
2023/05/25 06:45:09;;;;;;;14.43;10.50;;;14.40;92.20;;;;;;5008398;28;20189;-65
2023/05/25 06:47:35;;;;;;;20.13;13.30;;;14.50;92.20;;;;;;5007338;28;20204;-65
2023/05/25 06:50:01;;;;;;;11.40;6.40;;;14.50;92.20;;;;;;5015431;28;20623;-66
2023/05/25 06:52:27;;;;;;;12.37;6.87;;;14.60;92.10;;;;;;5018637;28;21059;-63
2023/05/25 06:54:53;;;;;;;14.30;6.70;;;14.70;92.00;;;;;;5014447;28;20734;-66
2023/05/25 06:57:19;;;;;;;14.00;7.40;;;14.70;92.10;;;;;;5024782;28;20412;-64
2023/05/25 06:59:45;;;;;;;9.93;6.00;;;14.80;91.80;;;;;;5019269;28;20443;-64
2023/05/25 07:02:10;;;;;;;13.87;5.30;;;14.80;91.80;;;;;;5017299;28;20181;-64
2023/05/25 07:04:36;;;;;;;11.13;5.83;;;14.80;91.80;;;;;;5022997;28;20181;-64
2023/05/25 07:07:02;;;;;;;10.67;5.50;;;14.90;91.70;;;;;;5022937;28;20188;-64
2023/05/25 07:09:28;;;;;;;15.97;6.27;;;15.00;91.60;;;;;;5021955;28;20968;-64
2023/05/25 07:11:53;;;;;;;6.97;5.00;;;15.00;91.40;;;;;;5016059;28;20218;-65
2023/05/25 07:14:19;;;;;;;12.97;5.77;;;15.10;91.70;;;;;;5021165;28;20223;-64
2023/05/25 07:16:44;;;;;;;9.47;5.23;;;15.20;91.60;;;;;;5025430;28;20177;-64
2023/05/25 07:19:10;;;;;;;19.50;9.77;;;15.20;91.50;;;;;;5021903;28;20208;-64
2023/05/25 07:21:36;;;;;;;16.60;6.93;;;15.20;91.50;;;;;;5015209;28;20630;-64
2023/05/25 07:24:02;;;;;;;9.93;5.97;;;15.30;91.50;;;;;;5015757;28;20215;-64
2023/05/25 07:26:30;;;;;;;7.40;5.90;;;15.30;91.40;;;;;;5019233;28;20667;-65
2023/05/25 07:28:56;;;;;;;14.50;6.07;;;15.40;91.50;;;;;;5010027;28;20502;-65
2023/05/25 07:31:22;;;;;;;10.27;5.83;;;15.50;91.50;;;;;;5018268;28;20439;-65
2023/05/25 07:33:48;;;;;;;10.93;5.80;;;15.60;91.50;;;;;;5018575;28;20616;-65
2023/05/25 07:36:13;;;;;;;8.90;5.60;;;15.60;91.60;;;;;;5007520;28;20659;-65
2023/05/25 07:38:39;;;;;;;10.00;6.27;;;15.70;91.60;;;;;;5021209;28;20207;-65
2023/05/25 07:41:05;;;;;;;12.80;7.40;;;15.80;91.50;;;;;;5018050;28;20184;-65
2023/05/25 07:43:30;;;;;;;8.07;5.53;;;15.90;91.50;;;;;;5009690;28;20655;-65
2023/05/25 07:45:56;;;;;;;7.23;6.10;;;16.00;91.90;;;;;;5010163;28;20561;-65
2023/05/25 07:48:22;;;;;;;14.93;6.47;;;16.00;91.30;;;;;;5011078;28;20250;-65
2023/05/25 07:50:48;;;;;;;14.67;6.33;;;16.10;91.10;;;;;;5012151;28;20449;-64
2023/05/25 07:53:13;;;;;;;9.73;6.30;;;16.20;91.00;;;;;;5014328;28;20258;-64
2023/05/25 07:55:39;;;;;;;11.67;6.13;;;16.30;91.10;;;;;;5016340;28;20241;-64
2023/05/25 07:58:06;;;;;;;17.57;7.00;;;16.40;91.00;;;;;;5018682;28;20934;-64
2023/05/25 08:00:32;;;;;;;11.40;6.90;;;16.50;90.80;;;;;;5010303;28;20430;-64
2023/05/25 08:02:57;;;;;;;12.00;6.13;;;16.50;90.80;;;;;;5023230;28;20548;-65
2023/05/25 08:05:23;;;;;;;14.63;6.83;;;16.60;90.60;;;;;;5010423;28;20456;-64
2023/05/25 08:07:49;;;;;;;14.10;7.10;;;16.70;90.40;;;;;;5020532;28;20473;-65
2023/05/25 08:10:15;;;;;;;17.13;7.67;;;16.80;90.30;;;;;;5022580;28;20181;-65
2023/05/25 08:12:40;;;;;;;11.40;6.07;;;16.80;90.20;;;;;;5004619;28;20181;-65
2023/05/25 08:15:06;;;;;;;13.73;7.70;;;16.90;90.20;;;;;;5014473;28;20982;-64
2023/05/25 08:17:32;;;;;;;16.03;7.20;;;17.00;90.10;;;;;;5008171;28;20185;-64
2023/05/25 08:19:57;;;;;;;14.23;6.90;;;17.00;90.10;;;;;;5014019;28;20953;-65
2023/05/25 08:22:23;;;;;;;22.23;7.30;;;17.10;90.10;;;;;;5012799;28;20274;-65
2023/05/25 08:24:48;;;;;;;12.57;6.90;;;17.10;90.10;;;;;;5015539;28;20211;-65
2023/05/25 08:27:15;;;;;;;10.50;7.17;;;17.20;89.90;;;;;;5012606;28;20189;-65
2023/05/25 08:29:40;;;;;;;9.97;7.40;;;17.30;90.00;;;;;;5016899;28;20200;-65
2023/05/25 08:32:07;;;;;;;9.83;6.80;;;17.30;90.00;;;;;;5014004;28;20484;-65
2023/05/25 08:34:33;;;;;;;10.03;6.50;;;17.40;89.90;;;;;;5016456;28;20200;-65
2023/05/25 08:36:58;;;;;;;10.00;5.87;;;17.50;90.00;;;;;;5012626;28;21017;-66
2023/05/25 08:39:24;;;;;;;11.90;7.00;;;17.60;90.00;;;;;;5017503;28;20196;-65
2023/05/25 08:41:52;;;;;;;12.33;7.33;;;17.70;89.80;;;;;;5017265;28;20257;-65
2023/05/25 08:44:19;;;;;;;11.43;7.43;;;17.80;89.60;;;;;;5020324;28;20189;-65
2023/05/25 08:46:49;;;;;;;12.80;6.43;;;17.90;90.00;;;;;;5025077;28;20473;-65
2023/05/25 08:49:15;;;;;;;8.70;6.13;;;17.90;89.10;;;;;;5021435;28;20439;-66
2023/05/25 08:51:49;;;;;;;10.57;5.87;;;18.00;88.90;;;;;;5020721;28;20430;-65
2023/05/25 08:54:18;;;;;;;12.07;6.47;;;18.10;88.80;;;;;;5017736;28;20200;-65
2023/05/25 08:56:51;;;;;;;11.80;6.80;;;18.20;88.70;;;;;;5015652;28;20434;-65
2023/05/25 08:59:39;;;;;;;12.67;6.40;;;18.20;88.50;;;;;;5019760;28;20843;-65
2023/05/25 09:02:33;;;;;;;9.50;6.43;;;18.30;88.40;;;;;;5013663;28;20454;-65
2023/05/25 09:05:00;;;;;;;13.20;7.60;;;18.40;88.40;;;;;;5022028;28;20415;-66
2023/05/25 09:07:27;;;;;;;10.87;7.00;;;18.40;88.60;;;;;;5023194;28;21028;-65
2023/05/25 09:09:54;;;;;;;10.30;6.97;;;18.40;88.90;;;;;;5024420;28;20454;-66
2023/05/25 09:12:22;;;;;;;11.87;6.57;;;18.50;88.90;;;;;;5027904;28;20752;-65
2023/05/25 09:14:47;;;;;;;9.60;6.43;;;18.60;88.60;;;;;;5017448;28;20513;-65
2023/05/25 09:17:15;;;;;;;13.17;6.80;;;18.60;88.40;;;;;;5022186;28;20411;-65
2023/05/25 09:19:40;;;;;;;14.80;7.17;;;18.70;88.70;;;;;;5021411;28;20240;-65
2023/05/25 09:22:06;;;;;;;8.53;6.80;;;18.80;88.40;;;;;;5020362;28;20436;-65
2023/05/25 09:24:33;;;;;;;9.20;5.93;;;18.80;88.90;;;;;;5020646;28;20545;-65
2023/05/25 09:26:59;;;;;;;12.47;7.50;;;18.90;88.90;;;;;;5019817;28;20180;-65
2023/05/25 09:29:25;;;;;;;12.80;6.97;;;19.00;88.80;;;;;;5015955;28;20438;-65
2023/05/25 09:31:51;;;;;;;8.77;7.10;;;19.10;88.80;;;;;;5019829;28;20431;-65
2023/05/25 09:34:16;;;;;;;11.53;7.90;;;19.10;89.00;;;;;;5024379;28;20197;-65
2023/05/25 09:36:42;;;;;;;14.00;7.90;;;19.20;88.70;;;;;;5026125;28;20211;-66
2023/05/25 09:39:11;;;;;;;9.20;7.37;;;19.20;88.20;;;;;;5022942;28;20827;-65
2023/05/25 09:41:39;;;;;;;11.07;6.90;;;19.20;88.10;;;;;;5027876;28;20169;-65
2023/05/25 09:44:05;;;;;;;9.77;7.40;;;19.30;88.70;;;;;;5022645;28;20426;-65
2023/05/25 09:46:35;;;;;;;11.07;7.63;;;19.40;88.80;;;;;;5034058;28;20758;-65
2023/05/25 09:49:01;;;;;;;10.70;7.30;;;19.50;88.30;;;;;;5020131;28;20260;-65
2023/05/25 09:51:27;;;;;;;10.67;7.00;;;19.50;88.10;;;;;;5028243;28;20418;-65
2023/05/25 09:53:53;;;;;;;13.37;6.70;;;19.60;88.20;;;;;;5024185;28;20613;-65
2023/05/25 09:56:20;;;;;;;11.33;6.30;;;19.70;86.30;;;;;;5025845;28;20521;-65
2023/05/25 09:58:46;;;;;;;12.40;7.90;;;19.70;85.70;;;;;;5024580;28;20204;-65
2023/05/25 10:01:11;;;;;;;9.80;5.43;;;19.80;85.20;;;;;;5022578;28;20798;-66
2023/05/25 10:03:45;;;;;;;8.27;6.47;;;19.90;84.80;;;;;;5027236;28;20734;-66
2023/05/25 10:06:13;;;;;;;11.87;6.60;;;20.00;84.40;;;;;;5027941;28;20177;-66
2023/05/25 10:08:41;;;;;;;10.83;6.20;;;20.00;83.90;;;;;;5024538;28;20435;-66
2023/05/25 10:11:07;;;;;;;15.03;6.70;;;20.20;82.40;;;;;;5028201;28;20921;-66
2023/05/25 10:13:33;;;;;;;11.50;5.43;;;20.20;82.30;;;;;;5030572;28;20451;-66
2023/05/25 10:15:59;;;;;;;14.30;6.73;;;20.20;81.80;;;;;;5029041;28;20437;-66
2023/05/25 10:18:27;;;;;;;11.93;6.57;;;20.30;80.20;;;;;;5027788;28;20192;-65
2023/05/25 10:21:01;;;;;;;12.53;6.40;;;20.30;80.80;;;;;;5029826;28;20446;-66
2023/05/25 10:23:31;;;;;;;11.73;6.03;;;20.30;79.60;;;;;;5029621;28;20418;-66
2023/05/25 10:26:01;;;;;;;8.83;6.50;;;20.40;79.80;;;;;;5021364;28;20819;-66
2023/05/25 10:28:35;;;;;;;11.60;6.67;;;20.40;80.00;;;;;;5028009;28;20927;-65
2023/05/25 10:31:02;;;;;;;8.30;6.03;;;20.50;80.40;;;;;;5028385;28;21119;-66
2023/05/25 10:33:28;;;;;;;9.63;6.50;;;20.60;80.00;;;;;;5025687;28;20495;-66
2023/05/25 10:35:54;;;;;;;11.70;6.77;;;20.70;79.40;;;;;;5026405;28;20442;-66
2023/05/25 10:38:21;;;;;;;9.70;6.07;;;20.80;79.10;;;;;;5025859;28;20540;-66
2023/05/25 10:40:49;;;;;;;6.70;5.70;;;20.90;78.30;;;;;;5024840;28;20490;-65
2023/05/25 10:43:17;;;;;;;9.93;6.50;;;20.90;77.90;;;;;;5026353;28;21006;-66
2023/05/25 10:45:43;;;;;;;10.13;5.80;;;21.00;77.60;;;;;;5028628;28;20420;-66
2023/05/25 10:48:08;;;;;;;9.33;6.70;;;21.10;77.40;;;;;;5025560;28;20867;-66
2023/05/25 10:50:35;;;;;;;8.40;5.90;;;21.20;76.80;;;;;;5024256;28;20427;-66
2023/05/25 10:53:04;;;;;;;11.83;6.23;;;21.30;76.20;;;;;;5021669;28;20175;-66
2023/05/25 10:56:01;;;;;;;11.70;7.43;;;21.40;76.40;;;;;;5025280;28;20849;-66
2023/05/25 10:58:28;;;;;;;10.43;6.00;;;21.50;75.60;;;;;;5021623;28;20888;-65
2023/05/25 11:01:08;;;;;;;14.30;6.40;;;21.50;75.40;;;;;;5027901;28;20430;-65
2023/05/25 11:03:52;;;;;;;8.70;6.00;;;21.60;75.30;;;;;;5025782;28;21000;-65
2023/05/25 11:06:20;;;;;;;8.50;5.97;;;21.80;75.40;;;;;;5022810;28;20535;-65
2023/05/25 11:09:00;;;;;;;8.63;6.80;;;21.90;74.70;;;;;;5021081;28;20438;-65
2023/05/25 11:11:41;;;;;;;10.93;5.80;;;21.90;73.00;;;;;;5024859;28;20498;-65
2023/05/25 11:14:20;;;;;;;7.67;5.77;;;22.00;73.70;;;;;;5024392;28;20451;-65
2023/05/25 11:17:15;;;;;;;8.40;6.67;;;22.20;73.90;;;;;;5022760;28;20441;-64
2023/05/25 11:19:47;;;;;;;8.53;5.97;;;22.30;73.80;;;;;;5022179;28;20823;-64
2023/05/25 11:22:22;;;;;;;11.77;6.07;;;22.40;73.60;;;;;;5023064;28;20403;-66
2023/05/25 11:24:49;;;;;;;9.03;6.70;;;22.60;73.10;;;;;;5020634;28;20429;-66
2023/05/25 11:27:20;;;;;;;12.00;6.07;;;22.80;73.10;;;;;;5023460;28;20424;-65
2023/05/25 11:29:49;;;;;;;10.23;6.30;;;22.90;72.00;;;;;;5023328;28;20459;-66
2023/05/25 11:32:15;;;;;;;7.27;5.33;;;23.10;72.00;;;;;;5032473;28;20852;-66
2023/05/25 11:34:48;;;;;;;9.30;6.33;;;23.20;70.80;;;;;;5025747;28;20502;-66
2023/05/25 11:37:23;;;;;;;12.03;6.23;;;23.40;70.90;;;;;;5021932;28;20690;-67
2023/05/25 11:39:50;;;;;;;8.40;6.10;;;23.60;69.80;;;;;;5018606;28;20816;-66
2023/05/25 11:42:18;;;;;;;8.40;6.00;;;23.80;69.10;;;;;;5053366;28;20431;-66
2023/05/25 11:44:47;;;;;;;7.70;6.03;;;24.00;68.00;;;;;;5023605;28;20932;-66
2023/05/25 11:47:17;;;;;;;11.40;6.53;;;24.20;67.70;;;;;;5023912;28;20569;-65
2023/05/25 11:49:45;;;;;;;14.90;5.60;;;24.50;67.80;;;;;;5027338;28;21015;-65
2023/05/25 11:52:12;;;;;;;10.70;6.97;;;24.90;67.20;;;;;;5025843;28;20430;-65
2023/05/25 11:54:41;;;;;;;8.13;6.10;;;25.20;64.00;;;;;;5021983;28;20472;-65
2023/05/25 11:57:15;;;;;;;14.00;7.17;;;25.60;63.20;;;;;;5023634;28;20431;-65
2023/05/25 11:59:50;;;;;;;6.70;5.87;;;26.20;62.90;;;;;;5019034;28;20430;-65
2023/05/25 12:02:16;;;;;;;5.90;5.10;;;27.20;60.40;;;;;;5022559;28;20428;-65
2023/05/25 12:04:53;;;;;;;11.83;6.27;;;28.90;58.50;;;;;;5023669;28;20422;-65
2023/05/25 12:07:18;;;;;;;7.27;6.00;;;30.80;55.20;;;;;;5017344;28;20435;-65
2023/05/25 12:09:44;;;;;;;8.93;6.17;;;31.30;51.00;;;;;;5023613;28;20450;-65
2023/05/25 12:12:10;;;;;;;7.00;5.20;;;32.00;49.60;;;;;;5019059;28;20224;-65
2023/05/25 12:14:46;;;;;;;8.40;6.50;;;32.90;48.50;;;;;;5024830;28;22113;-65
2023/05/25 12:17:12;;;;;;;15.00;6.80;;;34.20;47.00;;;;;;5022783;28;20173;-65
2023/05/25 12:19:38;;;;;;;8.67;5.33;;;35.40;45.40;;;;;;5025156;28;20428;-65
2023/05/25 12:22:04;;;;;;;7.50;5.80;;;36.60;43.30;;;;;;5021561;28;20180;-65
2023/05/25 12:24:29;;;;;;;8.73;6.20;;;37.20;40.40;;;;;;5020077;28;20176;-65
2023/05/25 12:27:00;;;;;;;9.47;5.40;;;37.30;38.20;;;;;;5019693;28;20443;-65
2023/05/25 12:29:26;;;;;;;6.47;5.00;;;37.60;37.70;;;;;;5023635;28;20204;-65
2023/05/25 12:31:52;;;;;;;8.67;5.47;;;38.20;37.30;;;;;;5028600;28;20473;-65
2023/05/25 12:34:19;;;;;;;8.33;5.47;;;38.60;36.20;;;;;;5024688;28;20562;-65
2023/05/25 12:36:51;;;;;;;5.60;5.10;;;38.90;35.40;;;;;;5027683;28;20188;-65
2023/05/25 12:39:37;;;;;;;7.40;5.73;;;39.20;34.60;;;;;;5022999;28;20443;-65
2023/05/25 12:42:04;;;;;;;9.30;6.43;;;39.30;34.40;;;;;;5025503;28;20419;-65